sensor_id;sensor_type;location;lat;lon;timestamp;temperature;humidity
27797;DHT22;15177;50.844;4.412;2023-03-26T00:01:32;11.10;99.90
27797;DHT22;15177;50.844;4.412;2023-03-26T00:04:01;11.10;99.90
27797;DHT22;15177;50.844;4.412;2023-03-26T00:06:30;11.10;99.90
27797;DHT22;15177;50.844;4.412;2023-03-26T00:08:57;11.10;99.90
27797;DHT22;15177;50.844;4.412;2023-03-26T00:11:25;11.10;99.90
27797;DHT22;15177;50.844;4.412;2023-03-26T00:13:51;11.10;99.90
27797;DHT22;15177;50.844;4.412;2023-03-26T00:16:22;11.10;99.90
27797;DHT22;15177;50.844;4.412;2023-03-26T00:18:48;11.00;99.90
27797;DHT22;15177;50.844;4.412;2023-03-26T00:21:21;10.90;99.90
27797;DHT22;15177;50.844;4.412;2023-03-26T00:23:52;11.00;99.90
27797;DHT22;15177;50.844;4.412;2023-03-26T00:26:18;11.10;99.90
27797;DHT22;15177;50.844;4.412;2023-03-26T00:28:44;11.10;99.90
27797;DHT22;15177;50.844;4.412;2023-03-26T00:31:11;10.90;99.90
27797;DHT22;15177;50.844;4.412;2023-03-26T00:33:38;10.70;99.90
27797;DHT22;15177;50.844;4.412;2023-03-26T00:36:10;10.80;99.90
27797;DHT22;15177;50.844;4.412;2023-03-26T00:38:37;10.70;99.90
27797;DHT22;15177;50.844;4.412;2023-03-26T00:41:07;10.80;99.90
27797;DHT22;15177;50.844;4.412;2023-03-26T00:43:43;10.80;99.90
27797;DHT22;15177;50.844;4.412;2023-03-26T00:46:10;10.90;99.90
27797;DHT22;15177;50.844;4.412;2023-03-26T00:48:36;10.90;99.90
27797;DHT22;15177;50.844;4.412;2023-03-26T00:51:04;11.10;99.90
27797;DHT22;15177;50.844;4.412;2023-03-26T00:53:30;11.00;99.90
27797;DHT22;15177;50.844;4.412;2023-03-26T00:55:56;10.90;99.90
27797;DHT22;15177;50.844;4.412;2023-03-26T00:58:25;10.70;99.90
27797;DHT22;15177;50.844;4.412;2023-03-26T01:00:54;10.60;99.90
27797;DHT22;15177;50.844;4.412;2023-03-26T01:03:25;10.60;99.90
27797;DHT22;15177;50.844;4.412;2023-03-26T01:06:07;10.70;99.90
27797;DHT22;15177;50.844;4.412;2023-03-26T01:11:10;10.80;99.90
27797;DHT22;15177;50.844;4.412;2023-03-26T01:13:41;10.70;99.90
27797;DHT22;15177;50.844;4.412;2023-03-26T01:16:15;10.80;99.90
27797;DHT22;15177;50.844;4.412;2023-03-26T01:18:45;11.00;99.90
27797;DHT22;15177;50.844;4.412;2023-03-26T01:21:11;11.00;99.90
27797;DHT22;15177;50.844;4.412;2023-03-26T01:23:45;10.90;99.90
27797;DHT22;15177;50.844;4.412;2023-03-26T01:26:43;10.50;99.90
27797;DHT22;15177;50.844;4.412;2023-03-26T01:29:21;10.40;99.90
27797;DHT22;15177;50.844;4.412;2023-03-26T01:37:54;10.60;99.90
27797;DHT22;15177;50.844;4.412;2023-03-26T01:40:27;10.70;99.90
27797;DHT22;15177;50.844;4.412;2023-03-26T01:43:08;10.60;99.90
27797;DHT22;15177;50.844;4.412;2023-03-26T01:45:38;10.20;99.90
27797;DHT22;15177;50.844;4.412;2023-03-26T01:48:04;10.20;99.90
27797;DHT22;15177;50.844;4.412;2023-03-26T01:50:30;10.10;99.90
27797;DHT22;15177;50.844;4.412;2023-03-26T01:52:56;10.40;99.90
27797;DHT22;15177;50.844;4.412;2023-03-26T01:55:29;10.20;99.90
27797;DHT22;15177;50.844;4.412;2023-03-26T01:58:14;10.10;99.90
27797;DHT22;15177;50.844;4.412;2023-03-26T02:00:49;10.20;99.90
27797;DHT22;15177;50.844;4.412;2023-03-26T02:03:30;10.10;99.90
27797;DHT22;15177;50.844;4.412;2023-03-26T02:06:04;10.30;99.90
27797;DHT22;15177;50.844;4.412;2023-03-26T02:08:37;10.30;99.90
27797;DHT22;15177;50.844;4.412;2023-03-26T02:11:11;10.30;99.90
27797;DHT22;15177;50.844;4.412;2023-03-26T02:13:43;10.10;99.90
27797;DHT22;15177;50.844;4.412;2023-03-26T02:16:12;10.20;99.90
27797;DHT22;15177;50.844;4.412;2023-03-26T02:18:44;10.30;99.90
27797;DHT22;15177;50.844;4.412;2023-03-26T02:23:39;10.10;99.90
27797;DHT22;15177;50.844;4.412;2023-03-26T02:26:08;10.10;99.90
27797;DHT22;15177;50.844;4.412;2023-03-26T02:28:34;10.20;99.90
27797;DHT22;15177;50.844;4.412;2023-03-26T02:31:00;10.30;99.90
27797;DHT22;15177;50.844;4.412;2023-03-26T02:33:28;10.10;99.90
27797;DHT22;15177;50.844;4.412;2023-03-26T02:35:54;10.00;99.90
27797;DHT22;15177;50.844;4.412;2023-03-26T02:38:24;9.90;99.90
27797;DHT22;15177;50.844;4.412;2023-03-26T02:40:52;10.10;99.90
27797;DHT22;15177;50.844;4.412;2023-03-26T02:43:18;10.10;99.90
27797;DHT22;15177;50.844;4.412;2023-03-26T02:45:43;10.10;99.90
27797;DHT22;15177;50.844;4.412;2023-03-26T02:48:09;10.10;99.90
27797;DHT22;15177;50.844;4.412;2023-03-26T02:50:35;9.80;99.90
27797;DHT22;15177;50.844;4.412;2023-03-26T02:53:01;9.90;99.90
27797;DHT22;15177;50.844;4.412;2023-03-26T02:55:27;10.10;99.90
27797;DHT22;15177;50.844;4.412;2023-03-26T02:57:53;9.80;99.90
27797;DHT22;15177;50.844;4.412;2023-03-26T03:00:18;9.70;99.90
27797;DHT22;15177;50.844;4.412;2023-03-26T03:02:47;9.70;99.90
27797;DHT22;15177;50.844;4.412;2023-03-26T03:05:13;9.70;99.90
27797;DHT22;15177;50.844;4.412;2023-03-26T03:07:39;9.90;99.90
27797;DHT22;15177;50.844;4.412;2023-03-26T03:10:07;9.70;99.90
27797;DHT22;15177;50.844;4.412;2023-03-26T03:12:41;9.70;99.90
27797;DHT22;15177;50.844;4.412;2023-03-26T03:15:08;9.80;99.90
27797;DHT22;15177;50.844;4.412;2023-03-26T03:17:34;9.90;99.90
27797;DHT22;15177;50.844;4.412;2023-03-26T03:19:59;9.60;99.90
27797;DHT22;15177;50.844;4.412;2023-03-26T03:22:25;9.70;99.90
27797;DHT22;15177;50.844;4.412;2023-03-26T03:24:51;9.80;99.90
27797;DHT22;15177;50.844;4.412;2023-03-26T03:27:17;9.90;99.90
27797;DHT22;15177;50.844;4.412;2023-03-26T03:29:48;9.80;99.90
27797;DHT22;15177;50.844;4.412;2023-03-26T03:32:13;9.80;99.90
27797;DHT22;15177;50.844;4.412;2023-03-26T03:34:39;10.00;99.90
27797;DHT22;15177;50.844;4.412;2023-03-26T03:37:08;10.20;99.90
27797;DHT22;15177;50.844;4.412;2023-03-26T03:39:33;10.20;99.90
27797;DHT22;15177;50.844;4.412;2023-03-26T03:41:59;10.10;99.90
27797;DHT22;15177;50.844;4.412;2023-03-26T03:44:24;9.90;99.90
27797;DHT22;15177;50.844;4.412;2023-03-26T03:46:50;9.80;99.90
27797;DHT22;15177;50.844;4.412;2023-03-26T03:49:20;9.80;99.90
27797;DHT22;15177;50.844;4.412;2023-03-26T03:51:46;9.70;99.90
27797;DHT22;15177;50.844;4.412;2023-03-26T03:54:12;9.60;99.90
27797;DHT22;15177;50.844;4.412;2023-03-26T03:56:37;9.60;99.90
27797;DHT22;15177;50.844;4.412;2023-03-26T03:59:04;9.40;99.90
27797;DHT22;15177;50.844;4.412;2023-03-26T04:01:30;9.20;99.90
27797;DHT22;15177;50.844;4.412;2023-03-26T04:03:57;9.30;99.90
27797;DHT22;15177;50.844;4.412;2023-03-26T04:06:24;9.40;99.90
27797;DHT22;15177;50.844;4.412;2023-03-26T04:08:51;9.40;99.90
27797;DHT22;15177;50.844;4.412;2023-03-26T04:11:17;9.50;99.90
27797;DHT22;15177;50.844;4.412;2023-03-26T04:13:43;9.50;99.90
27797;DHT22;15177;50.844;4.412;2023-03-26T04:16:09;9.60;99.90
27797;DHT22;15177;50.844;4.412;2023-03-26T04:18:35;9.70;99.90
27797;DHT22;15177;50.844;4.412;2023-03-26T04:21:05;9.80;99.90
27797;DHT22;15177;50.844;4.412;2023-03-26T04:23:32;9.80;99.90
27797;DHT22;15177;50.844;4.412;2023-03-26T04:26:02;9.90;99.90
27797;DHT22;15177;50.844;4.412;2023-03-26T04:28:48;9.90;99.90
27797;DHT22;15177;50.844;4.412;2023-03-26T04:31:20;9.90;99.90
27797;DHT22;15177;50.844;4.412;2023-03-26T04:33:58;9.90;99.90
27797;DHT22;15177;50.844;4.412;2023-03-26T04:36:28;9.80;99.90
27797;DHT22;15177;50.844;4.412;2023-03-26T04:38:55;9.70;99.90
27797;DHT22;15177;50.844;4.412;2023-03-26T04:41:23;9.70;99.90
27797;DHT22;15177;50.844;4.412;2023-03-26T04:43:55;9.80;99.90
27797;DHT22;15177;50.844;4.412;2023-03-26T04:46:21;9.80;99.90
27797;DHT22;15177;50.844;4.412;2023-03-26T04:48:49;9.90;99.90
27797;DHT22;15177;50.844;4.412;2023-03-26T04:51:16;9.90;99.90
27797;DHT22;15177;50.844;4.412;2023-03-26T04:53:54;10.00;99.90
27797;DHT22;15177;50.844;4.412;2023-03-26T04:59:00;10.00;99.90
27797;DHT22;15177;50.844;4.412;2023-03-26T05:01:26;9.80;99.90
27797;DHT22;15177;50.844;4.412;2023-03-26T05:03:56;9.90;99.90
27797;DHT22;15177;50.844;4.412;2023-03-26T05:06:24;9.80;99.90
27797;DHT22;15177;50.844;4.412;2023-03-26T05:08:52;9.90;99.90
27797;DHT22;15177;50.844;4.412;2023-03-26T05:11:18;10.10;99.90
27797;DHT22;15177;50.844;4.412;2023-03-26T05:13:44;10.20;99.90
27797;DHT22;15177;50.844;4.412;2023-03-26T05:16:12;10.00;99.90
27797;DHT22;15177;50.844;4.412;2023-03-26T05:18:38;9.90;99.90
27797;DHT22;15177;50.844;4.412;2023-03-26T05:21:04;9.80;99.90
27797;DHT22;15177;50.844;4.412;2023-03-26T05:23:31;9.90;99.90
27797;DHT22;15177;50.844;4.412;2023-03-26T05:25:56;9.70;99.90
27797;DHT22;15177;50.844;4.412;2023-03-26T05:28:22;9.90;99.90
27797;DHT22;15177;50.844;4.412;2023-03-26T05:30:53;9.70;99.90
27797;DHT22;15177;50.844;4.412;2023-03-26T05:33:20;9.80;99.90
27797;DHT22;15177;50.844;4.412;2023-03-26T05:35:45;9.80;99.90
27797;DHT22;15177;50.844;4.412;2023-03-26T05:38:14;9.60;99.90
27797;DHT22;15177;50.844;4.412;2023-03-26T05:40:39;9.40;99.90
27797;DHT22;15177;50.844;4.412;2023-03-26T05:43:05;9.30;99.90
27797;DHT22;15177;50.844;4.412;2023-03-26T05:45:31;9.30;99.90
27797;DHT22;15177;50.844;4.412;2023-03-26T05:47:56;9.40;99.90
27797;DHT22;15177;50.844;4.412;2023-03-26T05:50:22;9.40;99.90
27797;DHT22;15177;50.844;4.412;2023-03-26T05:52:48;9.40;99.90
27797;DHT22;15177;50.844;4.412;2023-03-26T05:55:14;9.50;99.90
27797;DHT22;15177;50.844;4.412;2023-03-26T05:57:43;9.50;99.90
27797;DHT22;15177;50.844;4.412;2023-03-26T06:00:09;9.50;99.90
27797;DHT22;15177;50.844;4.412;2023-03-26T06:02:36;9.60;99.90
27797;DHT22;15177;50.844;4.412;2023-03-26T06:05:02;9.50;99.90
27797;DHT22;15177;50.844;4.412;2023-03-26T06:07:29;9.70;99.90
27797;DHT22;15177;50.844;4.412;2023-03-26T06:09:56;9.60;99.90
27797;DHT22;15177;50.844;4.412;2023-03-26T06:12:22;9.20;99.90
27797;DHT22;15177;50.844;4.412;2023-03-26T06:14:47;9.10;99.90
27797;DHT22;15177;50.844;4.412;2023-03-26T06:17:13;9.20;99.90
27797;DHT22;15177;50.844;4.412;2023-03-26T06:19:39;9.10;99.90
27797;DHT22;15177;50.844;4.412;2023-03-26T06:22:04;8.90;99.90
27797;DHT22;15177;50.844;4.412;2023-03-26T06:24:32;8.90;99.90
27797;DHT22;15177;50.844;4.412;2023-03-26T06:26:58;8.70;99.90
27797;DHT22;15177;50.844;4.412;2023-03-26T06:29:26;8.70;99.90
27797;DHT22;15177;50.844;4.412;2023-03-26T06:31:51;8.60;99.90
27797;DHT22;15177;50.844;4.412;2023-03-26T06:34:17;8.60;99.90
27797;DHT22;15177;50.844;4.412;2023-03-26T06:36:43;8.60;99.90
27797;DHT22;15177;50.844;4.412;2023-03-26T06:39:08;8.70;99.90
27797;DHT22;15177;50.844;4.412;2023-03-26T06:41:34;8.60;99.90
27797;DHT22;15177;50.844;4.412;2023-03-26T06:44:00;8.40;99.90
27797;DHT22;15177;50.844;4.412;2023-03-26T06:46:26;8.40;99.90
27797;DHT22;15177;50.844;4.412;2023-03-26T06:48:52;8.40;99.90
27797;DHT22;15177;50.844;4.412;2023-03-26T06:51:18;8.30;99.90
27797;DHT22;15177;50.844;4.412;2023-03-26T06:53:44;8.40;99.90
27797;DHT22;15177;50.844;4.412;2023-03-26T06:56:09;8.30;99.90
27797;DHT22;15177;50.844;4.412;2023-03-26T06:58:35;8.20;99.90
27797;DHT22;15177;50.844;4.412;2023-03-26T07:01:01;8.00;99.90
27797;DHT22;15177;50.844;4.412;2023-03-26T07:03:26;8.00;99.90
27797;DHT22;15177;50.844;4.412;2023-03-26T07:05:52;7.90;99.90
27797;DHT22;15177;50.844;4.412;2023-03-26T07:08:18;7.80;99.90
27797;DHT22;15177;50.844;4.412;2023-03-26T07:10:43;7.80;99.90
27797;DHT22;15177;50.844;4.412;2023-03-26T07:13:09;7.80;99.90
27797;DHT22;15177;50.844;4.412;2023-03-26T07:15:35;7.70;99.90
27797;DHT22;15177;50.844;4.412;2023-03-26T07:18:00;7.60;99.90
27797;DHT22;15177;50.844;4.412;2023-03-26T07:20:26;7.70;99.90
27797;DHT22;15177;50.844;4.412;2023-03-26T07:22:53;7.70;99.90
27797;DHT22;15177;50.844;4.412;2023-03-26T07:25:19;7.70;99.90
27797;DHT22;15177;50.844;4.412;2023-03-26T07:28:01;7.70;99.90
27797;DHT22;15177;50.844;4.412;2023-03-26T07:33:13;7.90;99.90
27797;DHT22;15177;50.844;4.412;2023-03-26T07:35:45;7.90;99.90
27797;DHT22;15177;50.844;4.412;2023-03-26T07:38:34;7.90;99.90
27797;DHT22;15177;50.844;4.412;2023-03-26T07:43:48;7.90;99.90
27797;DHT22;15177;50.844;4.412;2023-03-26T07:46:20;7.90;99.90
27797;DHT22;15177;50.844;4.412;2023-03-26T07:48:50;7.80;99.90
27797;DHT22;15177;50.844;4.412;2023-03-26T07:51:18;7.80;99.90
27797;DHT22;15177;50.844;4.412;2023-03-26T07:53:46;7.80;99.90
27797;DHT22;15177;50.844;4.412;2023-03-26T07:56:15;7.90;99.90
27797;DHT22;15177;50.844;4.412;2023-03-26T08:07:10;7.90;99.90
27797;DHT22;15177;50.844;4.412;2023-03-26T08:10:05;7.90;99.90
27797;DHT22;15177;50.844;4.412;2023-03-26T08:15:31;7.80;99.90
27797;DHT22;15177;50.844;4.412;2023-03-26T08:20:45;7.80;99.90
27797;DHT22;15177;50.844;4.412;2023-03-26T08:23:57;7.90;99.90
27797;DHT22;15177;50.844;4.412;2023-03-26T08:29:22;8.00;99.90
27797;DHT22;15177;50.844;4.412;2023-03-26T08:31:51;7.90;99.90
27797;DHT22;15177;50.844;4.412;2023-03-26T08:34:17;8.00;99.90
27797;DHT22;15177;50.844;4.412;2023-03-26T08:36:42;8.00;99.90
27797;DHT22;15177;50.844;4.412;2023-03-26T08:39:08;8.00;99.90
27797;DHT22;15177;50.844;4.412;2023-03-26T08:54:39;8.00;99.90
27797;DHT22;15177;50.844;4.412;2023-03-26T08:57:55;8.10;99.90
27797;DHT22;15177;50.844;4.412;2023-03-26T09:24:34;8.50;99.90
27797;DHT22;15177;50.844;4.412;2023-03-26T09:33:25;8.00;99.90
27797;DHT22;15177;50.844;4.412;2023-03-26T09:39:08;8.20;99.90
27797;DHT22;15177;50.844;4.412;2023-03-26T09:44:38;8.50;99.90
27797;DHT22;15177;50.844;4.412;2023-03-26T09:55:40;8.40;99.90
27797;DHT22;15177;50.844;4.412;2023-03-26T10:07:12;8.50;99.90
27797;DHT22;15177;50.844;4.412;2023-03-26T10:18:19;8.70;99.90
27797;DHT22;15177;50.844;4.412;2023-03-26T10:26:27;9.00;99.90
27797;DHT22;15177;50.844;4.412;2023-03-26T10:31:50;9.10;99.90
27797;DHT22;15177;50.844;4.412;2023-03-26T10:37:09;9.30;99.90
27797;DHT22;15177;50.844;4.412;2023-03-26T10:53:30;9.10;99.90
27797;DHT22;15177;50.844;4.412;2023-03-26T10:56:11;9.00;99.90
27797;DHT22;15177;50.844;4.412;2023-03-26T10:58:41;9.10;99.90
27797;DHT22;15177;50.844;4.412;2023-03-26T11:01:17;9.10;99.90
27797;DHT22;15177;50.844;4.412;2023-03-26T11:03:55;9.20;99.90
27797;DHT22;15177;50.844;4.412;2023-03-26T11:06:39;9.00;99.90
27797;DHT22;15177;50.844;4.412;2023-03-26T11:20:26;9.30;99.90
27797;DHT22;15177;50.844;4.412;2023-03-26T11:28:54;9.40;99.90
27797;DHT22;15177;50.844;4.412;2023-03-26T11:34:08;9.40;99.90
27797;DHT22;15177;50.844;4.412;2023-03-26T11:36:39;9.50;99.90
27797;DHT22;15177;50.844;4.412;2023-03-26T11:39:12;9.60;99.90
27797;DHT22;15177;50.844;4.412;2023-03-26T11:41:39;9.60;99.90
27797;DHT22;15177;50.844;4.412;2023-03-26T11:44:24;9.60;99.90
27797;DHT22;15177;50.844;4.412;2023-03-26T11:46:55;9.70;99.90
27797;DHT22;15177;50.844;4.412;2023-03-26T11:49:25;9.50;99.90
27797;DHT22;15177;50.844;4.412;2023-03-26T11:51:51;9.50;99.90
27797;DHT22;15177;50.844;4.412;2023-03-26T11:54:17;9.50;99.90
27797;DHT22;15177;50.844;4.412;2023-03-26T11:57:07;9.60;99.90
27797;DHT22;15177;50.844;4.412;2023-03-26T11:59:45;9.50;99.90
27797;DHT22;15177;50.844;4.412;2023-03-26T12:04:39;9.40;99.90
27797;DHT22;15177;50.844;4.412;2023-03-26T12:07:14;9.50;99.90
27797;DHT22;15177;50.844;4.412;2023-03-26T12:09:55;9.50;99.90
27797;DHT22;15177;50.844;4.412;2023-03-26T12:12:47;9.50;99.90
27797;DHT22;15177;50.844;4.412;2023-03-26T12:15:20;9.60;99.90
27797;DHT22;15177;50.844;4.412;2023-03-26T12:17:48;9.60;99.90
27797;DHT22;15177;50.844;4.412;2023-03-26T12:22:50;9.70;99.90
27797;DHT22;15177;50.844;4.412;2023-03-26T12:25:20;9.60;99.90
27797;DHT22;15177;50.844;4.412;2023-03-26T12:27:49;9.60;99.90
27797;DHT22;15177;50.844;4.412;2023-03-26T12:32:50;9.80;99.90
27797;DHT22;15177;50.844;4.412;2023-03-26T12:35:22;9.70;99.90
27797;DHT22;15177;50.844;4.412;2023-03-26T12:37:55;9.70;99.90
27797;DHT22;15177;50.844;4.412;2023-03-26T12:40:37;9.80;99.90
27797;DHT22;15177;50.844;4.412;2023-03-26T12:43:56;10.00;99.90
27797;DHT22;15177;50.844;4.412;2023-03-26T12:46:25;10.10;99.90
27797;DHT22;15177;50.844;4.412;2023-03-26T12:48:53;10.10;99.90
27797;DHT22;15177;50.844;4.412;2023-03-26T13:00:24;10.10;99.90
27797;DHT22;15177;50.844;4.412;2023-03-26T13:19:39;10.20;99.90
27797;DHT22;15177;50.844;4.412;2023-03-26T13:27:36;10.50;99.90
27797;DHT22;15177;50.844;4.412;2023-03-26T13:30:18;10.50;99.90
27797;DHT22;15177;50.844;4.412;2023-03-26T13:33:05;10.50;99.90
27797;DHT22;15177;50.844;4.412;2023-03-26T13:46:59;10.30;99.90
27797;DHT22;15177;50.844;4.412;2023-03-26T13:49:29;10.30;99.90
27797;DHT22;15177;50.844;4.412;2023-03-26T13:52:33;10.30;99.90
27797;DHT22;15177;50.844;4.412;2023-03-26T13:58:00;10.40;99.90
27797;DHT22;15177;50.844;4.412;2023-03-26T14:00:46;10.40;99.90
27797;DHT22;15177;50.844;4.412;2023-03-26T14:06:49;10.60;99.90
27797;DHT22;15177;50.844;4.412;2023-03-26T14:09:43;10.40;99.90
27797;DHT22;15177;50.844;4.412;2023-03-26T14:14:57;10.30;99.90
27797;DHT22;15177;50.844;4.412;2023-03-26T14:17:40;10.30;99.90
27797;DHT22;15177;50.844;4.412;2023-03-26T14:20:31;10.50;99.90
27797;DHT22;15177;50.844;4.412;2023-03-26T14:31:56;10.50;99.90
27797;DHT22;15177;50.844;4.412;2023-03-26T14:42:52;10.20;99.90
27797;DHT22;15177;50.844;4.412;2023-03-26T14:45:43;10.10;99.90
27797;DHT22;15177;50.844;4.412;2023-03-26T14:51:09;10.10;99.90
27797;DHT22;15177;50.844;4.412;2023-03-26T14:53:42;10.20;99.90
27797;DHT22;15177;50.844;4.412;2023-03-26T15:01:28;10.20;99.90
27797;DHT22;15177;50.844;4.412;2023-03-26T15:10:09;10.30;99.90
27797;DHT22;15177;50.844;4.412;2023-03-26T15:24:40;10.60;99.90
27797;DHT22;15177;50.844;4.412;2023-03-26T15:49:47;10.70;99.90
27797;DHT22;15177;50.844;4.412;2023-03-26T15:52:32;10.60;99.90
27797;DHT22;15177;50.844;4.412;2023-03-26T15:55:17;10.60;99.90
27797;DHT22;15177;50.844;4.412;2023-03-26T15:57:57;10.50;99.90
27797;DHT22;15177;50.844;4.412;2023-03-26T16:00:27;10.50;99.90
27797;DHT22;15177;50.844;4.412;2023-03-26T16:11:02;9.60;99.90
27797;DHT22;15177;50.844;4.412;2023-03-26T16:13:49;9.40;99.90
27797;DHT22;15177;50.844;4.412;2023-03-26T16:16:21;9.30;99.90
27797;DHT22;15177;50.844;4.412;2023-03-26T16:18:57;9.20;99.90
27797;DHT22;15177;50.844;4.412;2023-03-26T16:21:45;9.20;99.90
27797;DHT22;15177;50.844;4.412;2023-03-26T16:24:21;9.20;99.90
27797;DHT22;15177;50.844;4.412;2023-03-26T16:27:04;9.20;99.90
27797;DHT22;15177;50.844;4.412;2023-03-26T16:30:11;9.30;99.90
27797;DHT22;15177;50.844;4.412;2023-03-26T16:32:52;9.30;99.90
27797;DHT22;15177;50.844;4.412;2023-03-26T16:38:13;9.40;99.90
27797;DHT22;15177;50.844;4.412;2023-03-26T16:41:03;9.40;99.90
27797;DHT22;15177;50.844;4.412;2023-03-26T16:44:13;9.50;99.90
27797;DHT22;15177;50.844;4.412;2023-03-26T17:00:45;9.70;99.90
27797;DHT22;15177;50.844;4.412;2023-03-26T17:11:36;9.70;99.90
27797;DHT22;15177;50.844;4.412;2023-03-26T17:24:45;9.40;99.90
27797;DHT22;15177;50.844;4.412;2023-03-26T17:32:58;9.30;99.90
27797;DHT22;15177;50.844;4.412;2023-03-26T17:40:50;9.20;99.90
27797;DHT22;15177;50.844;4.412;2023-03-26T17:43:36;9.10;99.90
27797;DHT22;15177;50.844;4.412;2023-03-26T17:46:35;9.20;99.90
27797;DHT22;15177;50.844;4.412;2023-03-26T17:54:23;9.20;99.90
27797;DHT22;15177;50.844;4.412;2023-03-26T17:56:51;9.10;99.90
27797;DHT22;15177;50.844;4.412;2023-03-26T17:59:21;9.20;99.90
27797;DHT22;15177;50.844;4.412;2023-03-26T18:02:03;9.20;99.90
27797;DHT22;15177;50.844;4.412;2023-03-26T18:04:36;9.30;99.90
27797;DHT22;15177;50.844;4.412;2023-03-26T18:07:42;9.30;99.90
27797;DHT22;15177;50.844;4.412;2023-03-26T18:16:48;9.10;99.90
27797;DHT22;15177;50.844;4.412;2023-03-26T18:19:13;9.10;99.90
27797;DHT22;15177;50.844;4.412;2023-03-26T18:21:45;9.00;99.90
27797;DHT22;15177;50.844;4.412;2023-03-26T18:24:22;8.90;99.90
27797;DHT22;15177;50.844;4.412;2023-03-26T18:26:58;8.80;99.90
27797;DHT22;15177;50.844;4.412;2023-03-26T18:29:33;8.90;99.90
27797;DHT22;15177;50.844;4.412;2023-03-26T18:34:35;8.90;99.90
27797;DHT22;15177;50.844;4.412;2023-03-26T18:42:24;8.70;99.90
27797;DHT22;15177;50.844;4.412;2023-03-26T18:44:52;8.70;99.90
27797;DHT22;15177;50.844;4.412;2023-03-26T18:47:20;8.80;99.90
27797;DHT22;15177;50.844;4.412;2023-03-26T18:49:50;8.70;99.90
27797;DHT22;15177;50.844;4.412;2023-03-26T18:52:18;8.70;99.90
27797;DHT22;15177;50.844;4.412;2023-03-26T18:54:50;8.70;99.90
27797;DHT22;15177;50.844;4.412;2023-03-26T18:57:22;8.70;99.90
27797;DHT22;15177;50.844;4.412;2023-03-26T18:59:50;8.70;99.90
27797;DHT22;15177;50.844;4.412;2023-03-26T19:02:17;8.70;99.90
27797;DHT22;15177;50.844;4.412;2023-03-26T19:04:44;8.70;99.90
27797;DHT22;15177;50.844;4.412;2023-03-26T19:07:23;8.60;99.90
27797;DHT22;15177;50.844;4.412;2023-03-26T19:09:50;8.60;99.90
27797;DHT22;15177;50.844;4.412;2023-03-26T19:15:09;8.50;99.90
27797;DHT22;15177;50.844;4.412;2023-03-26T19:17:43;8.50;99.90
27797;DHT22;15177;50.844;4.412;2023-03-26T19:20:16;8.60;99.90
27797;DHT22;15177;50.844;4.412;2023-03-26T19:22:45;8.50;99.90
27797;DHT22;15177;50.844;4.412;2023-03-26T19:25:22;8.40;99.90
27797;DHT22;15177;50.844;4.412;2023-03-26T19:27:50;8.30;99.90
27797;DHT22;15177;50.844;4.412;2023-03-26T19:30:29;8.30;99.90
27797;DHT22;15177;50.844;4.412;2023-03-26T19:33:13;8.30;99.90
27797;DHT22;15177;50.844;4.412;2023-03-26T19:35:43;8.40;99.90
27797;DHT22;15177;50.844;4.412;2023-03-26T19:38:17;8.30;99.90
27797;DHT22;15177;50.844;4.412;2023-03-26T19:40:44;8.30;99.90
27797;DHT22;15177;50.844;4.412;2023-03-26T19:43:12;8.20;99.90
27797;DHT22;15177;50.844;4.412;2023-03-26T19:45:38;8.20;99.90
27797;DHT22;15177;50.844;4.412;2023-03-26T19:48:07;8.20;99.90
27797;DHT22;15177;50.844;4.412;2023-03-26T19:50:38;8.10;99.90
27797;DHT22;15177;50.844;4.412;2023-03-26T19:53:28;8.10;99.90
27797;DHT22;15177;50.844;4.412;2023-03-26T19:58:31;8.10;99.90
27797;DHT22;15177;50.844;4.412;2023-03-26T20:00:57;8.00;99.90
27797;DHT22;15177;50.844;4.412;2023-03-26T20:03:28;8.00;99.90
27797;DHT22;15177;50.844;4.412;2023-03-26T20:05:54;7.90;99.90
27797;DHT22;15177;50.844;4.412;2023-03-26T20:08:20;7.90;99.90
27797;DHT22;15177;50.844;4.412;2023-03-26T20:10:52;7.80;99.90
27797;DHT22;15177;50.844;4.412;2023-03-26T20:13:18;7.70;99.90
27797;DHT22;15177;50.844;4.412;2023-03-26T20:15:55;7.70;99.90
27797;DHT22;15177;50.844;4.412;2023-03-26T20:18:22;7.80;99.90
27797;DHT22;15177;50.844;4.412;2023-03-26T20:20:49;7.80;99.90
27797;DHT22;15177;50.844;4.412;2023-03-26T20:23:15;7.80;99.90
27797;DHT22;15177;50.844;4.412;2023-03-26T20:25:46;7.70;99.90
27797;DHT22;15177;50.844;4.412;2023-03-26T20:28:15;7.70;99.90
27797;DHT22;15177;50.844;4.412;2023-03-26T20:30:44;7.80;99.90
27797;DHT22;15177;50.844;4.412;2023-03-26T20:33:23;7.90;99.90
27797;DHT22;15177;50.844;4.412;2023-03-26T20:35:56;7.90;99.90
27797;DHT22;15177;50.844;4.412;2023-03-26T20:38:24;7.90;99.90
27797;DHT22;15177;50.844;4.412;2023-03-26T20:40:54;7.80;99.90
27797;DHT22;15177;50.844;4.412;2023-03-26T20:43:20;7.70;99.90
27797;DHT22;15177;50.844;4.412;2023-03-26T20:45:48;7.60;99.90
27797;DHT22;15177;50.844;4.412;2023-03-26T20:48:14;7.60;99.90
27797;DHT22;15177;50.844;4.412;2023-03-26T20:50:40;7.70;99.90
27797;DHT22;15177;50.844;4.412;2023-03-26T20:53:16;7.70;99.90
27797;DHT22;15177;50.844;4.412;2023-03-26T20:55:43;7.70;99.90
27797;DHT22;15177;50.844;4.412;2023-03-26T20:58:15;7.70;99.90
27797;DHT22;15177;50.844;4.412;2023-03-26T21:00:43;7.70;99.90
27797;DHT22;15177;50.844;4.412;2023-03-26T21:03:14;7.70;99.90
27797;DHT22;15177;50.844;4.412;2023-03-26T21:05:40;7.60;99.90
27797;DHT22;15177;50.844;4.412;2023-03-26T21:08:15;7.40;99.90
27797;DHT22;15177;50.844;4.412;2023-03-26T21:10:42;7.40;99.90
27797;DHT22;15177;50.844;4.412;2023-03-26T21:13:22;7.40;99.90
27797;DHT22;15177;50.844;4.412;2023-03-26T21:15:53;7.60;99.90
27797;DHT22;15177;50.844;4.412;2023-03-26T21:18:19;7.70;99.90
27797;DHT22;15177;50.844;4.412;2023-03-26T21:20:56;7.60;99.90
27797;DHT22;15177;50.844;4.412;2023-03-26T21:23:48;7.50;99.90
27797;DHT22;15177;50.844;4.412;2023-03-26T21:28:52;7.40;99.90
27797;DHT22;15177;50.844;4.412;2023-03-26T21:31:22;7.40;99.90
27797;DHT22;15177;50.844;4.412;2023-03-26T21:33:55;7.50;99.90
27797;DHT22;15177;50.844;4.412;2023-03-26T21:36:21;7.40;99.90
27797;DHT22;15177;50.844;4.412;2023-03-26T21:38:48;7.50;99.90
27797;DHT22;15177;50.844;4.412;2023-03-26T21:41:34;7.50;99.90
27797;DHT22;15177;50.844;4.412;2023-03-26T21:44:06;7.40;99.90
27797;DHT22;15177;50.844;4.412;2023-03-26T21:46:32;7.30;99.90
27797;DHT22;15177;50.844;4.412;2023-03-26T21:48:58;7.20;99.90
27797;DHT22;15177;50.844;4.412;2023-03-26T21:51:24;7.20;99.90
27797;DHT22;15177;50.844;4.412;2023-03-26T21:53:51;7.30;99.90
27797;DHT22;15177;50.844;4.412;2023-03-26T21:56:46;7.20;99.90
27797;DHT22;15177;50.844;4.412;2023-03-26T22:02:09;7.30;99.90
27797;DHT22;15177;50.844;4.412;2023-03-26T22:07:52;7.30;99.90
27797;DHT22;15177;50.844;4.412;2023-03-26T22:10:20;7.40;99.90
27797;DHT22;15177;50.844;4.412;2023-03-26T22:12:46;7.50;99.90
27797;DHT22;15177;50.844;4.412;2023-03-26T22:15:12;7.50;99.90
27797;DHT22;15177;50.844;4.412;2023-03-26T22:17:39;7.50;99.90
27797;DHT22;15177;50.844;4.412;2023-03-26T22:20:10;7.50;99.90